createdAt,value
2022-09-23T00:02:31.681Z,2.20
2022-09-23T00:05:33.495Z,2.40
2022-09-23T00:08:35.141Z,2.40
2022-09-23T00:11:37.481Z,2.13
2022-09-23T00:14:39.789Z,2.13
2022-09-23T00:17:42.237Z,2.00
2022-09-23T00:20:44.830Z,2.50
2022-09-23T00:23:46.623Z,2.30
2022-09-23T00:26:48.233Z,2.70
2022-09-23T00:29:49.870Z,2.60
2022-09-23T00:32:52.863Z,2.77
2022-09-23T00:36:03.024Z,2.50
2022-09-23T00:39:04.879Z,2.10
2022-09-23T00:42:12.665Z,2.60
2022-09-23T00:45:15.144Z,2.27
2022-09-23T00:48:20.996Z,2.50
2022-09-23T00:51:27.497Z,2.63
2022-09-23T00:54:29.829Z,2.27
2022-09-23T00:57:32.122Z,2.47
2022-09-23T01:01:24.843Z,2.13
2022-09-23T01:04:29.767Z,2.40
2022-09-23T01:07:31.516Z,2.27
2022-09-23T01:10:51.592Z,2.20
2022-09-23T01:14:09.625Z,2.00
2022-09-23T01:17:27.262Z,2.43
2022-09-23T01:20:50.604Z,2.43
2022-09-23T01:24:09.521Z,2.30
2022-09-23T01:27:22.103Z,2.40
2022-09-23T01:30:46.035Z,2.27
2022-09-23T01:34:07.298Z,2.20
2022-09-23T01:37:54.256Z,2.07
2022-09-23T01:41:12.710Z,2.30
2022-09-23T01:44:49.332Z,2.00
2022-09-23T01:48:18.947Z,2.13
2022-09-23T01:51:35.578Z,2.20
2022-09-23T01:54:46.493Z,2.10
2022-09-23T01:57:54.998Z,2.20
2022-09-23T02:01:03.124Z,2.23
2022-09-23T02:04:15.344Z,2.20
2022-09-23T02:07:28.471Z,2.07
2022-09-23T02:10:38.047Z,2.10
2022-09-23T02:13:55.891Z,2.10
2022-09-23T02:17:03.391Z,2.23
2022-09-23T02:20:06.998Z,2.20
2022-09-23T02:23:13.020Z,2.10
2022-09-23T02:26:25.053Z,2.00
2022-09-23T02:29:38.287Z,2.03
2022-09-23T02:32:54.334Z,2.00
2022-09-23T02:36:03.366Z,1.90
2022-09-23T02:39:11.150Z,2.00
2022-09-23T02:42:15.336Z,1.87
2022-09-23T02:45:17.352Z,2.00
2022-09-23T02:48:26.957Z,2.10
2022-09-23T02:51:34.378Z,2.00
2022-09-23T02:54:37.230Z,2.10
2022-09-23T02:57:38.953Z,1.83
2022-09-23T03:01:18.914Z,1.97
2022-09-23T03:04:26.790Z,1.97
2022-09-23T03:07:53.940Z,2.00
2022-09-23T03:10:59.441Z,1.80
2022-09-23T03:14:21.944Z,2.03
2022-09-23T03:17:33.721Z,2.00
2022-09-23T03:20:42.650Z,2.10
2022-09-23T03:23:46.065Z,1.70
2022-09-23T03:26:49.783Z,2.00
2022-09-23T03:29:54.121Z,1.77
2022-09-23T03:33:00.094Z,1.90
2022-09-23T03:36:25.225Z,1.90
2022-09-23T03:39:47.119Z,1.77
2022-09-23T03:42:54.384Z,1.73
2022-09-23T03:45:57.786Z,2.00
2022-09-23T03:49:27.269Z,2.00
2022-09-23T03:52:29.017Z,2.20
2022-09-23T03:55:32.060Z,2.13
2022-09-23T03:58:33.654Z,2.00
2022-09-23T04:01:35.220Z,2.20
2022-09-23T04:04:37.713Z,2.10
2022-09-23T04:07:39.516Z,1.97
2022-09-23T04:10:41.974Z,2.00
2022-09-23T04:13:43.677Z,1.80
2022-09-23T04:16:46.977Z,1.87
2022-09-23T04:19:48.656Z,1.90
2022-09-23T04:22:50.255Z,2.00
2022-09-23T04:25:51.848Z,1.90
2022-09-23T04:28:55.161Z,2.10
2022-09-23T04:31:57.662Z,2.17
2022-09-23T04:34:59.308Z,2.17
2022-09-23T04:38:00.909Z,1.90
2022-09-23T04:41:02.801Z,2.00
2022-09-23T04:44:04.924Z,2.10
2022-09-23T04:47:06.691Z,2.13
2022-09-23T04:50:08.759Z,3.70
2022-09-23T04:53:10.358Z,2.00
2022-09-23T04:56:14.828Z,2.27
2022-09-23T04:59:16.545Z,1.87
2022-09-23T05:02:18.214Z,1.90
2022-09-23T05:05:23.596Z,2.20
2022-09-23T05:08:25.199Z,2.30
2022-09-23T05:11:29.117Z,2.80
2022-09-23T05:14:30.701Z,2.20
2022-09-23T05:17:32.380Z,2.10
2022-09-23T05:20:34.073Z,1.77
2022-09-23T05:23:36.420Z,2.73
2022-09-23T05:26:39.527Z,3.80
2022-09-23T05:29:41.138Z,3.10
2022-09-23T05:32:42.752Z,1.97
2022-09-23T05:35:48.032Z,2.20
2022-09-23T05:38:51.153Z,2.30
2022-09-23T05:41:53.759Z,2.17
2022-09-23T05:44:56.134Z,1.90
2022-09-23T05:47:59.171Z,1.97
2022-09-23T05:51:01.652Z,2.70
2022-09-23T05:54:05.075Z,2.13
2022-09-23T05:57:06.727Z,2.30
2022-09-23T06:00:09.292Z,2.20
2022-09-23T06:03:18.734Z,3.53
2022-09-23T06:06:26.012Z,2.20
2022-09-23T06:09:27.595Z,2.17
2022-09-23T06:12:29.233Z,2.17
2022-09-23T06:15:30.882Z,2.03
2022-09-23T06:18:32.576Z,2.10
2022-09-23T06:21:39.494Z,1.90
2022-09-23T06:24:47.237Z,1.93
2022-09-23T06:27:55.981Z,1.83
2022-09-23T06:30:59.045Z,1.70
2022-09-23T06:34:12.183Z,1.90
2022-09-23T06:37:20.166Z,1.80
2022-09-23T06:40:22.662Z,1.80
2022-09-23T06:43:28.768Z,1.60
2022-09-23T06:46:31.894Z,1.83
2022-09-23T06:49:33.894Z,1.70
2022-09-23T06:52:35.529Z,1.70
2022-09-23T06:55:37.124Z,1.43
2022-09-23T06:58:39.896Z,1.90
2022-09-23T07:01:41.834Z,1.70
2022-09-23T07:04:43.605Z,1.70
2022-09-23T07:07:45.447Z,1.70
2022-09-23T07:10:54.950Z,2.13
2022-09-23T07:13:57.762Z,1.60
2022-09-23T07:16:59.914Z,1.67
2022-09-23T07:20:02.018Z,1.40
2022-09-23T07:23:03.662Z,1.40
2022-09-23T07:26:07.707Z,1.70
2022-09-23T07:29:13.647Z,1.87
2022-09-23T07:32:15.625Z,1.47
2022-09-23T07:35:17.411Z,1.60
2022-09-23T07:38:19.090Z,1.60
2022-09-23T07:41:20.762Z,1.50
2022-09-23T07:44:22.638Z,1.40
2022-09-23T07:47:24.338Z,1.60
2022-09-23T07:50:26.035Z,1.80
2022-09-23T07:53:28.409Z,1.40
2022-09-23T07:56:42.988Z,1.73
2022-09-23T07:59:44.571Z,1.70
2022-09-23T08:02:49.561Z,2.03
2022-09-23T08:06:25.079Z,1.60
2022-09-23T08:09:32.542Z,1.70
2022-09-23T08:12:34.329Z,1.90
2022-09-23T08:15:35.958Z,1.83
2022-09-23T08:18:47.697Z,1.87
2022-09-23T08:21:52.025Z,1.87
2022-09-23T08:24:56.001Z,1.80
2022-09-23T08:27:58.366Z,1.70
2022-09-23T08:31:00.304Z,1.50
2022-09-23T08:34:02.936Z,1.70
2022-09-23T08:37:04.742Z,1.50
2022-09-23T08:40:06.958Z,1.83
2022-09-23T08:43:28.235Z,2.00
2022-09-23T08:46:42.197Z,2.10
2022-09-23T08:49:53.305Z,1.77
2022-09-23T08:53:01.512Z,1.73
2022-09-23T08:56:18.212Z,2.13
2022-09-23T08:59:40.168Z,2.40
2022-09-23T09:02:41.951Z,1.90
2022-09-23T09:05:53.608Z,1.67
2022-09-23T09:09:02.942Z,2.20
2022-09-23T09:12:29.111Z,1.80
2022-09-23T09:15:33.822Z,2.70
2022-09-23T09:18:44.052Z,2.30
2022-09-23T09:21:49.519Z,2.10
2022-09-23T09:24:54.163Z,2.07
2022-09-23T09:27:57.080Z,1.70
2022-09-23T09:31:14.885Z,1.90
2022-09-23T09:34:25.136Z,3.10
2022-09-23T09:37:37.599Z,2.23
2022-09-23T09:40:47.152Z,1.90
2022-09-23T09:43:50.568Z,1.90
2022-09-23T09:47:13.660Z,1.97
2022-09-23T09:51:02.195Z,1.83
2022-09-23T09:54:24.596Z,1.87
2022-09-23T09:57:35.063Z,2.00
2022-09-23T10:00:44.033Z,2.30
2022-09-23T10:03:46.701Z,2.07
2022-09-23T10:07:09.754Z,2.10
2022-09-23T10:10:31.760Z,2.20
2022-09-23T10:13:36.169Z,1.87
2022-09-23T10:16:37.961Z,2.10
2022-09-23T10:19:45.828Z,1.93
2022-09-23T10:22:47.599Z,2.70
2022-09-23T10:26:05.285Z,2.20
2022-09-23T10:29:30.047Z,2.10
2022-09-23T10:32:37.192Z,2.10
2022-09-23T10:35:56.578Z,2.23
2022-09-23T10:39:22.794Z,2.17
2022-09-23T10:43:05.538Z,2.20
2022-09-23T10:46:45.830Z,1.83
2022-09-23T10:50:03.713Z,1.80
2022-09-23T10:53:20.248Z,1.90
2022-09-23T10:56:42.893Z,1.70
2022-09-23T11:00:10.854Z,2.03
2022-09-23T11:03:26.897Z,1.97
2022-09-23T11:07:01.413Z,2.20
2022-09-23T11:10:45.585Z,1.97
2022-09-23T11:14:17.009Z,2.10
2022-09-23T11:17:34.237Z,2.77
2022-09-23T11:20:56.948Z,2.10
2022-09-23T11:23:58.714Z,2.47
2022-09-23T11:27:25.919Z,2.10
2022-09-23T11:30:45.848Z,1.80
2022-09-23T11:34:02.796Z,1.70
2022-09-23T11:37:36.784Z,1.93
2022-09-23T11:40:43.845Z,1.90
2022-09-23T11:43:52.619Z,2.23
2022-09-23T11:47:04.480Z,1.90
2022-09-23T11:50:18.741Z,1.80
2022-09-23T11:53:37.500Z,1.60
2022-09-23T11:56:47.752Z,2.07
2022-09-23T11:59:56.974Z,2.20
2022-09-23T12:03:22.923Z,2.20
2022-09-23T12:06:47.986Z,2.30
2022-09-23T12:10:07.602Z,2.33
2022-09-23T12:13:19.041Z,2.10
2022-09-23T12:16:29.633Z,1.90
2022-09-23T12:19:47.292Z,1.80
2022-09-23T12:22:55.231Z,2.20
2022-09-23T12:26:02.820Z,2.37
2022-09-23T12:29:05.969Z,1.83
2022-09-23T12:32:09.919Z,1.90
2022-09-23T12:35:25.506Z,1.93
2022-09-23T12:38:46.850Z,2.00
2022-09-23T12:41:51.420Z,2.50
2022-09-23T12:45:17.321Z,1.80
2022-09-23T12:48:18.899Z,2.27
2022-09-23T12:51:23.400Z,1.70
2022-09-23T12:54:25.112Z,1.70
2022-09-23T12:57:35.857Z,1.97
2022-09-23T13:00:37.491Z,2.23
2022-09-23T13:04:04.232Z,1.70
2022-09-23T13:07:08.806Z,2.87
2022-09-23T13:10:31.823Z,2.20
2022-09-23T13:13:40.138Z,1.93
2022-09-23T13:16:44.236Z,1.70
2022-09-23T13:19:46.172Z,2.00
2022-09-23T13:22:53.396Z,1.80
2022-09-23T13:25:59.419Z,2.00
2022-09-23T13:29:02.405Z,2.13
2022-09-23T13:32:05.822Z,2.23
2022-09-23T13:35:14.051Z,2.10
2022-09-23T13:38:24.937Z,2.50
2022-09-23T13:41:28.629Z,1.80
2022-09-23T13:44:30.771Z,2.23
2022-09-23T13:47:35.754Z,2.13
2022-09-23T13:50:40.801Z,1.90
2022-09-23T13:53:42.423Z,2.43
2022-09-23T13:56:49.002Z,1.80
2022-09-23T13:59:50.648Z,2.57
2022-09-23T14:02:55.308Z,2.30
2022-09-23T14:06:03.869Z,1.83
2022-09-23T14:09:06.456Z,1.80
2022-09-23T14:12:09.869Z,2.00
2022-09-23T14:15:17.337Z,2.60
2022-09-23T14:18:27.308Z,1.93
2022-09-23T14:21:37.720Z,2.10
2022-09-23T14:24:39.557Z,2.10
2022-09-23T14:27:42.448Z,2.97
2022-09-23T14:30:46.206Z,2.90
2022-09-23T14:33:47.900Z,2.83
2022-09-23T14:37:08.014Z,2.00
2022-09-23T14:40:21.959Z,1.90
2022-09-23T14:43:28.416Z,2.00
2022-09-23T14:46:40.171Z,1.90
2022-09-23T14:50:10.707Z,2.10
2022-09-23T14:53:24.013Z,2.00
2022-09-23T14:56:25.862Z,1.93
2022-09-23T14:59:33.586Z,1.90
2022-09-23T15:02:35.241Z,2.47
2022-09-23T15:05:44.283Z,2.53
2022-09-23T15:08:47.935Z,4.40
2022-09-23T15:11:59.761Z,3.03
2022-09-23T15:15:01.623Z,2.40
2022-09-23T15:18:06.265Z,3.37
2022-09-23T15:21:14.377Z,4.60
2022-09-23T15:24:55.740Z,2.83
2022-09-23T15:28:19.220Z,3.50
2022-09-23T15:31:25.454Z,4.03
2022-09-23T15:34:27.132Z,4.70
2022-09-23T15:37:31.760Z,2.27
2022-09-23T15:40:37.667Z,2.30
2022-09-23T15:43:41.713Z,2.20
2022-09-23T15:46:46.973Z,1.90
2022-09-23T15:49:48.787Z,2.00
2022-09-23T15:52:50.516Z,2.17
2022-09-23T15:55:52.621Z,2.20
2022-09-23T15:58:54.461Z,1.87
2022-09-23T16:01:58.113Z,1.70
2022-09-23T16:05:02.714Z,3.10
2022-09-23T16:08:08.891Z,2.00
2022-09-23T16:11:24.038Z,2.23
2022-09-23T16:14:25.732Z,2.23
2022-09-23T16:17:44.713Z,2.60
2022-09-23T16:20:47.279Z,2.60
2022-09-23T16:23:51.186Z,3.43
2022-09-23T16:26:52.840Z,2.70
2022-09-23T16:29:54.506Z,2.50
2022-09-23T16:32:56.474Z,2.60
2022-09-23T16:36:00.846Z,2.43
2022-09-23T16:39:07.074Z,2.20
2022-09-23T16:42:09.697Z,2.53
2022-09-23T16:45:11.929Z,2.70
2022-09-23T16:48:13.610Z,2.60
2022-09-23T16:51:21.188Z,2.83
2022-09-23T16:54:23.825Z,2.57
2022-09-23T16:57:25.424Z,1.90
2022-09-23T17:00:45.453Z,1.83
2022-09-23T17:03:49.213Z,1.90
2022-09-23T17:06:52.525Z,1.90
2022-09-23T17:09:54.104Z,2.30
2022-09-23T17:12:55.981Z,1.90
2022-09-23T17:15:57.776Z,1.60
2022-09-23T17:18:59.428Z,1.93
2022-09-23T17:22:01.040Z,1.90
2022-09-23T17:25:03.782Z,2.10
2022-09-23T17:28:05.524Z,3.33
2022-09-23T17:31:07.590Z,4.13
2022-09-23T17:34:09.481Z,4.70
2022-09-23T17:37:11.162Z,2.57
2022-09-23T17:40:13.112Z,2.80
2022-09-23T17:43:14.737Z,5.27
2022-09-23T17:46:19.581Z,7.73
2022-09-23T17:49:24.073Z,5.10
2022-09-23T17:52:25.765Z,3.93
2022-09-23T17:55:27.473Z,2.70
2022-09-23T17:58:30.909Z,4.97
2022-09-23T18:01:32.692Z,3.27
2022-09-23T18:04:34.324Z,3.00
2022-09-23T18:07:35.928Z,2.70
2022-09-23T18:10:37.519Z,2.87
2022-09-23T18:13:39.114Z,3.30
2022-09-23T18:16:42.278Z,4.97
2022-09-23T18:19:48.964Z,2.20
2022-09-23T18:22:50.545Z,2.23
2022-09-23T18:25:52.218Z,2.70
2022-09-23T18:29:00.652Z,1.90
2022-09-23T18:32:02.793Z,2.00
2022-09-23T18:35:12.785Z,1.97
2022-09-23T18:38:14.557Z,1.80
2022-09-23T18:41:16.919Z,1.97
2022-09-23T18:44:19.868Z,1.73
2022-09-23T18:47:40.645Z,1.70
2022-09-23T18:50:47.313Z,1.87
2022-09-23T18:53:50.167Z,1.80
2022-09-23T18:56:54.625Z,1.60
2022-09-23T18:59:59.810Z,1.77
2022-09-23T19:03:01.585Z,2.00
2022-09-23T19:06:05.562Z,1.90
2022-09-23T19:09:07.531Z,1.70
2022-09-23T19:12:09.276Z,1.90
2022-09-23T19:15:11.100Z,1.80
2022-09-23T19:18:12.718Z,2.00
2022-09-23T19:21:17.465Z,2.00
2022-09-23T19:24:20.450Z,2.00
2022-09-23T19:27:23.406Z,2.00
2022-09-23T19:30:25.056Z,2.40
2022-09-23T19:33:26.658Z,2.30
2022-09-23T19:36:31.156Z,1.80
2022-09-23T19:39:34.512Z,2.20
2022-09-23T19:42:37.140Z,1.83
2022-09-23T19:45:39.260Z,2.00
2022-09-23T19:48:41.232Z,1.93
2022-09-23T19:51:44.089Z,2.03
2022-09-23T19:54:48.553Z,1.70
2022-09-23T19:57:50.133Z,1.80
2022-09-23T20:01:11.938Z,1.83
2022-09-23T20:04:15.474Z,1.83
2022-09-23T20:07:19.188Z,1.90
2022-09-23T20:10:22.586Z,1.80
2022-09-23T20:13:24.230Z,1.90
2022-09-23T20:16:27.854Z,2.27
2022-09-23T20:19:29.558Z,2.07
2022-09-23T20:22:34.043Z,1.80
2022-09-23T20:25:54.156Z,1.90
2022-09-23T20:28:55.743Z,2.10
2022-09-23T20:31:58.585Z,2.27
2022-09-23T20:35:03.653Z,1.77
2022-09-23T20:38:08.147Z,2.00
2022-09-23T20:41:10.037Z,2.00
2022-09-23T20:44:12.285Z,1.73
2022-09-23T20:47:16.201Z,1.90
2022-09-23T20:50:17.893Z,2.53
2022-09-23T20:53:22.081Z,2.40
2022-09-23T20:56:24.350Z,1.97
2022-09-23T20:59:27.346Z,2.20
2022-09-23T21:02:28.994Z,2.47
2022-09-23T21:05:30.860Z,3.00
2022-09-23T21:08:33.625Z,2.87
2022-09-23T21:11:35.584Z,2.60
2022-09-23T21:14:37.182Z,2.80
2022-09-23T21:17:38.794Z,2.20
2022-09-23T21:20:40.377Z,2.90
2022-09-23T21:23:43.345Z,2.90
2022-09-23T21:26:47.261Z,2.53
2022-09-23T21:29:48.865Z,2.70
2022-09-23T21:32:50.472Z,2.90
2022-09-23T21:35:56.390Z,2.43
2022-09-23T21:38:58.973Z,2.53
2022-09-23T21:42:01.423Z,2.40
2022-09-23T21:45:04.112Z,2.30
2022-09-23T21:48:05.726Z,2.53
2022-09-23T21:51:09.652Z,2.50
2022-09-23T21:54:14.563Z,2.70
2022-09-23T21:57:16.218Z,2.20
2022-09-23T22:00:17.851Z,2.40
2022-09-23T22:03:20.112Z,2.50
2022-09-23T22:06:27.439Z,2.20
2022-09-23T22:09:29.083Z,2.30
2022-09-23T22:12:30.705Z,2.77
2022-09-23T22:15:36.605Z,3.23
2022-09-23T22:18:38.195Z,3.57
2022-09-23T22:21:41.656Z,3.17
2022-09-23T22:24:44.857Z,2.80
2022-09-23T22:28:04.781Z,2.33
2022-09-23T22:31:26.166Z,2.70
2022-09-23T22:34:48.365Z,2.80
2022-09-23T22:37:50.390Z,2.90
2022-09-23T22:40:52.032Z,2.93
2022-09-23T22:43:53.841Z,2.60
2022-09-23T22:46:57.021Z,2.80
2022-09-23T22:50:00.649Z,2.97
2022-09-23T22:53:02.220Z,3.20
2022-09-23T22:56:03.889Z,3.00
2022-09-23T22:59:07.349Z,2.77
2022-09-23T23:02:08.994Z,4.30
2022-09-23T23:05:11.016Z,3.30
2022-09-23T23:08:12.876Z,3.90
2022-09-23T23:11:15.552Z,3.53
2022-09-23T23:14:18.633Z,3.57
2022-09-23T23:17:20.220Z,4.10
2022-09-23T23:20:21.821Z,4.00
2022-09-23T23:23:23.428Z,4.20
2022-09-23T23:26:31.293Z,3.40
2022-09-23T23:29:34.325Z,3.40
2022-09-23T23:32:35.926Z,3.37
2022-09-23T23:35:37.587Z,3.00
2022-09-23T23:38:40.942Z,3.30
2022-09-23T23:41:42.579Z,3.60
2022-09-23T23:44:44.294Z,3.00
2022-09-23T23:47:46.317Z,3.10
2022-09-23T23:50:58.945Z,2.90
2022-09-23T23:54:00.722Z,3.30
2022-09-23T23:57:02.372Z,3.00
